createdAt,value
2018-10-12T00:00:47.993Z,17.80
2018-10-12T00:03:16.513Z,17.70
2018-10-12T00:05:45.010Z,17.70
2018-10-12T00:08:13.472Z,17.70
2018-10-12T00:10:41.997Z,17.80
2018-10-12T00:13:10.441Z,17.70
2018-10-12T00:15:38.929Z,17.70
2018-10-12T00:18:07.387Z,17.70
2018-10-12T00:20:35.941Z,17.80
2018-10-12T00:23:04.459Z,17.90
2018-10-12T00:25:32.956Z,17.80
2018-10-12T00:28:01.490Z,17.80
2018-10-12T00:30:29.964Z,18.00
2018-10-12T00:32:58.402Z,17.70
2018-10-12T00:35:26.887Z,17.70
2018-10-12T00:37:55.344Z,17.70
2018-10-12T00:40:23.801Z,17.50
2018-10-12T00:42:53.025Z,17.50
2018-10-12T00:45:21.696Z,17.40
2018-10-12T00:47:55.614Z,17.40
2018-10-12T00:50:24.108Z,17.40
2018-10-12T00:52:52.573Z,17.30
2018-10-12T00:55:21.084Z,17.30
2018-10-12T00:57:49.573Z,17.30
2018-10-12T01:00:18.110Z,17.20
2018-10-12T01:02:46.597Z,17.20
2018-10-12T01:05:15.171Z,17.20
2018-10-12T01:07:43.661Z,17.20
2018-10-12T01:10:12.138Z,17.20
2018-10-12T01:12:40.702Z,17.20
2018-10-12T01:15:09.316Z,17.20
2018-10-12T01:17:38.272Z,17.20
2018-10-12T01:20:07.201Z,17.20
2018-10-12T01:22:35.749Z,17.20
2018-10-12T01:25:05.171Z,17.10
2018-10-12T01:27:33.936Z,17.10
2018-10-12T01:30:03.022Z,17.20
2018-10-12T01:32:36.773Z,17.10
2018-10-12T01:35:05.353Z,17.10
2018-10-12T01:37:33.800Z,17.00
2018-10-12T01:40:02.303Z,17.00
2018-10-12T01:42:30.716Z,17.00
2018-10-12T01:44:59.298Z,17.00
2018-10-12T01:47:27.800Z,17.00
2018-10-12T01:49:56.278Z,17.00
2018-10-12T01:52:24.857Z,17.00
2018-10-12T01:54:53.368Z,17.00
2018-10-12T01:57:21.883Z,16.90
2018-10-12T01:59:50.369Z,16.90
2018-10-12T02:02:18.860Z,17.00
2018-10-12T02:04:47.754Z,17.00
2018-10-12T02:07:16.312Z,17.10
2018-10-12T02:09:45.052Z,17.00
2018-10-12T02:12:13.600Z,16.90
2018-10-12T02:14:42.111Z,16.90
2018-10-12T02:17:10.572Z,16.90
2018-10-12T02:19:39.061Z,17.10
2018-10-12T02:22:07.564Z,17.00
2018-10-12T02:24:36.740Z,16.90
2018-10-12T02:27:05.249Z,16.90
2018-10-12T02:29:33.734Z,17.00
2018-10-12T02:32:02.564Z,16.80
2018-10-12T02:34:31.246Z,17.00
2018-10-12T02:37:00.135Z,16.90
2018-10-12T02:39:28.993Z,17.00
2018-10-12T02:41:57.808Z,16.90
2018-10-12T02:44:26.778Z,16.80
2018-10-12T02:46:55.833Z,16.90
2018-10-12T02:49:24.554Z,17.00
2018-10-12T02:51:53.588Z,16.90
2018-10-12T02:54:22.762Z,16.90
2018-10-12T02:56:51.802Z,16.80
2018-10-12T02:59:20.581Z,16.70
2018-10-12T03:01:49.523Z,16.70
2018-10-12T03:04:18.689Z,16.80
2018-10-12T03:06:47.393Z,16.80
2018-10-12T03:09:16.321Z,16.90
2018-10-12T03:11:45.339Z,16.80
2018-10-12T03:14:14.291Z,16.70
2018-10-12T03:16:43.191Z,16.70
2018-10-12T03:19:12.147Z,16.60
2018-10-12T03:21:40.948Z,16.60
2018-10-12T03:24:09.862Z,16.70
2018-10-12T03:26:38.734Z,16.60
2018-10-12T03:29:07.880Z,16.60
2018-10-12T03:31:36.590Z,16.60
2018-10-12T03:34:05.329Z,16.60
2018-10-12T03:36:34.418Z,16.50
2018-10-12T03:39:03.437Z,16.50
2018-10-12T03:41:31.956Z,16.50
2018-10-12T03:44:00.455Z,16.40
2018-10-12T03:46:28.965Z,16.40
2018-10-12T03:48:57.596Z,16.40
2018-10-12T03:51:26.289Z,16.50
2018-10-12T03:53:54.763Z,16.50
2018-10-12T03:56:23.258Z,16.60
2018-10-12T03:58:51.715Z,16.40
2018-10-12T04:01:20.204Z,16.30
2018-10-12T04:03:48.672Z,16.30
2018-10-12T04:06:17.135Z,16.20
2018-10-12T04:08:45.612Z,16.20
2018-10-12T04:11:14.088Z,16.20
2018-10-12T04:13:42.540Z,16.10
2018-10-12T04:16:11.038Z,16.10
2018-10-12T04:18:39.508Z,16.10
2018-10-12T04:21:08.243Z,16.00
2018-10-12T04:23:36.721Z,16.00
2018-10-12T04:26:05.188Z,15.90
2018-10-12T04:28:33.721Z,15.90
2018-10-12T04:31:02.205Z,15.80
2018-10-12T04:33:30.642Z,15.80
2018-10-12T04:35:59.118Z,15.70
2018-10-12T04:38:32.088Z,15.70
2018-10-12T04:41:06.845Z,15.80
2018-10-12T04:43:35.363Z,15.80
2018-10-12T04:46:05.499Z,15.70
2018-10-12T04:48:36.143Z,15.70
2018-10-12T04:51:07.154Z,15.70
2018-10-12T04:53:35.718Z,15.70
2018-10-12T04:56:07.396Z,15.70
2018-10-12T04:58:35.886Z,15.70
2018-10-12T05:01:04.441Z,15.80
2018-10-12T05:03:32.937Z,15.60
2018-10-12T05:06:01.826Z,15.60
2018-10-12T05:08:30.369Z,15.60
2018-10-12T05:10:58.901Z,15.60
2018-10-12T05:13:27.551Z,15.70
2018-10-12T05:15:56.071Z,15.60
2018-10-12T05:18:25.269Z,15.60
2018-10-12T05:20:53.805Z,15.70
2018-10-12T05:23:22.233Z,15.80
2018-10-12T05:25:50.700Z,15.90
2018-10-12T05:28:19.188Z,15.90
2018-10-12T05:30:47.701Z,15.90
2018-10-12T05:33:16.231Z,15.80
2018-10-12T05:35:45.031Z,15.70
2018-10-12T05:38:13.701Z,15.70
2018-10-12T05:40:42.392Z,15.70
2018-10-12T05:43:13.974Z,15.70
2018-10-12T05:45:42.492Z,15.50
2018-10-12T05:48:22.189Z,15.60
2018-10-12T05:50:50.728Z,15.50
2018-10-12T05:53:19.275Z,15.70
2018-10-12T05:55:47.898Z,15.60
2018-10-12T05:58:17.010Z,15.70
2018-10-12T06:00:45.534Z,15.70
2018-10-12T06:03:14.086Z,15.60
2018-10-12T06:05:42.603Z,15.60
2018-10-12T06:08:11.179Z,15.60
2018-10-12T06:10:39.701Z,15.50
2018-10-12T06:13:08.205Z,15.60
2018-10-12T06:15:36.699Z,15.60
2018-10-12T06:18:07.066Z,15.60
2018-10-12T06:20:35.652Z,15.50
2018-10-12T06:23:04.916Z,15.60
2018-10-12T06:25:33.536Z,15.60
2018-10-12T06:28:02.064Z,15.70
2018-10-12T06:30:30.582Z,15.80
2018-10-12T06:32:59.195Z,15.70
2018-10-12T06:35:28.142Z,15.70
2018-10-12T06:37:56.949Z,15.70
2018-10-12T06:40:25.481Z,15.70
2018-10-12T06:42:53.979Z,15.80
2018-10-12T06:45:22.479Z,15.80
2018-10-12T06:47:50.961Z,15.80
2018-10-12T06:50:19.484Z,15.80
2018-10-12T06:52:47.994Z,15.90
2018-10-12T06:55:16.483Z,15.90
2018-10-12T06:57:44.936Z,16.00
2018-10-12T07:00:13.485Z,16.00
2018-10-12T07:02:42.191Z,16.00
2018-10-12T07:05:10.841Z,16.00
2018-10-12T07:07:39.383Z,16.00
2018-10-12T07:10:08.802Z,16.00
2018-10-12T07:12:37.324Z,16.00
2018-10-12T07:15:06.570Z,16.10
2018-10-12T07:17:35.148Z,16.10
2018-10-12T07:20:03.836Z,16.10
2018-10-12T07:22:32.332Z,16.20
2018-10-12T07:25:00.851Z,16.30
2018-10-12T07:27:29.435Z,16.40
2018-10-12T07:29:58.004Z,16.60
2018-10-12T07:32:27.862Z,16.70
2018-10-12T07:34:56.425Z,16.80
2018-10-12T07:37:24.957Z,16.90
2018-10-12T07:39:53.433Z,17.00
2018-10-12T07:42:22.031Z,17.10
2018-10-12T07:44:50.443Z,17.20
2018-10-12T07:47:18.906Z,17.30
2018-10-12T07:49:47.389Z,17.30
2018-10-12T07:52:15.834Z,17.40
2018-10-12T07:54:44.460Z,17.70
2018-10-12T07:57:14.076Z,17.40
2018-10-12T07:59:44.008Z,17.40
2018-10-12T08:02:13.357Z,17.60
2018-10-12T08:04:42.643Z,17.90
2018-10-12T08:07:12.348Z,18.10
2018-10-12T08:09:40.897Z,18.20
2018-10-12T08:12:09.394Z,18.60
2018-10-12T08:14:37.881Z,18.70
2018-10-12T08:17:06.648Z,19.10
2018-10-12T08:19:35.193Z,19.10
2018-10-12T08:22:03.779Z,19.10
2018-10-12T08:24:32.239Z,19.00
2018-10-12T08:27:00.742Z,19.20
2018-10-12T08:29:29.398Z,19.40
2018-10-12T08:31:57.935Z,19.50
2018-10-12T08:34:26.378Z,19.50
2018-10-12T08:36:54.908Z,19.50
2018-10-12T08:39:23.425Z,19.50
2018-10-12T08:41:51.988Z,19.60
2018-10-12T08:44:20.415Z,19.60
2018-10-12T08:46:48.898Z,19.60
2018-10-12T08:49:17.381Z,19.40
2018-10-12T08:51:45.850Z,20.20
2018-10-12T08:54:14.385Z,20.10
2018-10-12T08:56:42.818Z,20.40
2018-10-12T08:59:11.301Z,20.60
2018-10-12T09:01:39.816Z,20.50
2018-10-12T09:04:08.336Z,20.20
2018-10-12T09:06:36.824Z,20.10
2018-10-12T09:09:08.572Z,20.30
2018-10-12T09:11:37.340Z,20.60
2018-10-12T09:14:06.057Z,20.10
2018-10-12T09:16:34.527Z,19.70
2018-10-12T09:19:03.163Z,19.60
2018-10-12T09:21:31.938Z,19.60
2018-10-12T09:24:00.410Z,19.80
2018-10-12T09:26:29.001Z,19.80
2018-10-12T09:28:57.514Z,19.60
2018-10-12T09:31:26.023Z,19.50
2018-10-12T09:33:54.496Z,19.50
2018-10-12T09:36:23.019Z,19.80
2018-10-12T09:38:51.490Z,19.70
2018-10-12T09:41:20.081Z,19.60
2018-10-12T09:43:48.578Z,19.70
2018-10-12T09:46:17.081Z,19.80
2018-10-12T09:48:45.572Z,19.90
2018-10-12T09:51:14.054Z,20.00
2018-10-12T09:53:42.529Z,20.20
2018-10-12T09:56:11.078Z,20.20
2018-10-12T09:58:39.593Z,20.20
2018-10-12T10:01:13.428Z,20.10
2018-10-12T10:03:47.130Z,20.20
2018-10-12T10:06:15.595Z,20.10
2018-10-12T10:08:44.393Z,20.10
2018-10-12T10:11:12.689Z,20.00
2018-10-12T10:13:41.231Z,20.20
2018-10-12T10:16:09.708Z,20.40
2018-10-12T10:18:38.230Z,20.50
2018-10-12T10:21:06.772Z,20.60
2018-10-12T10:23:35.584Z,20.80
2018-10-12T10:26:04.054Z,20.90
2018-10-12T10:28:32.574Z,21.20
2018-10-12T10:31:01.051Z,21.10
2018-10-12T10:33:29.505Z,21.00
2018-10-12T10:35:58.016Z,20.90
2018-10-12T10:38:26.566Z,20.90
2018-10-12T10:40:55.000Z,21.00
2018-10-12T10:43:23.440Z,20.90
2018-10-12T10:45:51.942Z,21.00
2018-10-12T10:48:20.491Z,21.00
2018-10-12T10:50:49.015Z,21.00
2018-10-12T10:53:17.517Z,21.20
2018-10-12T10:55:46.052Z,21.50
2018-10-12T10:58:14.560Z,21.70
2018-10-12T11:00:43.141Z,21.70
2018-10-12T11:03:11.705Z,21.90
2018-10-12T11:05:40.162Z,22.10
2018-10-12T11:08:08.874Z,21.90
2018-10-12T11:10:37.327Z,21.90
2018-10-12T11:13:06.324Z,21.90
2018-10-12T11:15:34.861Z,22.20
2018-10-12T11:18:03.369Z,22.20
2018-10-12T11:20:31.859Z,22.20
2018-10-12T11:23:00.365Z,22.30
2018-10-12T11:25:28.845Z,22.40
2018-10-12T11:27:57.433Z,22.40
2018-10-12T11:30:25.962Z,22.50
2018-10-12T11:32:54.493Z,22.50
2018-10-12T11:35:22.920Z,22.70
2018-10-12T11:37:51.409Z,22.80
2018-10-12T11:40:19.915Z,23.30
2018-10-12T11:42:59.652Z,23.40
2018-10-12T11:46:57.380Z,23.20
2018-10-12T11:49:25.893Z,23.20
2018-10-12T11:51:54.333Z,23.20
2018-10-12T11:54:22.921Z,23.50
2018-10-12T11:56:53.342Z,23.40
2018-10-12T11:59:23.028Z,23.20
2018-10-12T12:01:51.495Z,23.40
2018-10-12T12:04:20.306Z,23.60
2018-10-12T12:06:49.019Z,23.50
2018-10-12T12:09:17.542Z,24.20
2018-10-12T12:11:46.022Z,24.20
2018-10-12T12:14:14.551Z,24.30
2018-10-12T12:16:43.933Z,24.10
2018-10-12T12:19:12.468Z,23.90
2018-10-12T12:21:40.944Z,23.70
2018-10-12T12:24:09.514Z,23.40
2018-10-12T12:26:37.989Z,23.40
2018-10-12T12:29:06.464Z,23.50
2018-10-12T12:31:35.010Z,23.90
2018-10-12T12:34:03.539Z,23.90
2018-10-12T12:36:32.027Z,24.20
2018-10-12T12:39:00.493Z,24.30
2018-10-12T12:41:29.029Z,24.40
2018-10-12T12:43:57.475Z,24.30
2018-10-12T12:46:25.994Z,24.30
2018-10-12T12:48:55.000Z,24.50
2018-10-12T12:51:23.063Z,24.40
2018-10-12T12:53:51.638Z,24.80
2018-10-12T12:56:20.048Z,25.20
2018-10-12T12:58:48.500Z,25.50
2018-10-12T13:01:16.975Z,25.30
2018-10-12T13:03:45.502Z,24.80
2018-10-12T13:06:14.008Z,24.90
2018-10-12T13:08:42.494Z,25.30
2018-10-12T13:11:11.081Z,24.80
2018-10-12T13:13:40.345Z,24.70
2018-10-12T13:16:08.820Z,24.70
2018-10-12T13:18:37.303Z,24.70
2018-10-12T13:21:05.776Z,24.60
2018-10-12T13:23:34.271Z,24.70
2018-10-12T13:26:02.921Z,24.90
2018-10-12T13:28:31.258Z,25.30
2018-10-12T13:30:59.762Z,24.80
2018-10-12T13:33:28.227Z,24.90
2018-10-12T13:35:56.715Z,25.00
2018-10-12T13:38:25.196Z,24.50
2018-10-12T13:40:53.681Z,24.40
2018-10-12T13:43:22.196Z,24.40
2018-10-12T13:45:50.678Z,24.90
2018-10-12T13:48:19.170Z,25.00
2018-10-12T13:50:47.716Z,24.70
2018-10-12T13:53:16.203Z,24.70
2018-10-12T13:55:44.693Z,25.10
2018-10-12T13:58:13.208Z,25.30
2018-10-12T14:00:41.687Z,25.50
2018-10-12T14:03:10.203Z,25.60
2018-10-12T14:05:38.724Z,25.30
2018-10-12T14:08:07.520Z,25.40
2018-10-12T14:10:35.961Z,25.20
2018-10-12T14:13:04.546Z,25.30
2018-10-12T14:15:33.057Z,25.10
2018-10-12T14:18:01.578Z,24.80
2018-10-12T14:20:30.105Z,24.80
2018-10-12T14:22:58.574Z,24.70
2018-10-12T14:25:27.052Z,24.60
2018-10-12T14:27:55.576Z,25.00
2018-10-12T14:30:24.170Z,25.20
2018-10-12T14:32:52.621Z,25.60
2018-10-12T14:35:21.107Z,25.60
2018-10-12T14:37:49.591Z,25.50
2018-10-12T14:40:18.068Z,25.40
2018-10-12T14:42:46.684Z,25.20
2018-10-12T14:45:15.180Z,24.80
2018-10-12T14:47:43.634Z,24.80
2018-10-12T14:50:12.117Z,24.50
2018-10-12T14:52:40.605Z,24.20
2018-10-12T14:55:09.425Z,24.20
2018-10-12T14:57:37.901Z,24.00
2018-10-12T15:00:08.224Z,23.90
2018-10-12T15:02:36.771Z,23.90
2018-10-12T15:05:05.705Z,23.80
2018-10-12T15:07:34.247Z,23.90
2018-10-12T15:10:03.171Z,23.70
2018-10-12T15:12:31.674Z,23.80
2018-10-12T15:15:15.314Z,23.70
2018-10-12T15:17:44.996Z,23.60
2018-10-12T15:20:13.486Z,23.50
2018-10-12T15:22:42.006Z,23.50
2018-10-12T15:25:10.592Z,23.60
2018-10-12T15:27:39.520Z,23.50
2018-10-12T15:30:08.358Z,23.30
2018-10-12T15:32:36.911Z,23.30
2018-10-12T15:35:05.454Z,23.40
2018-10-12T15:37:33.934Z,23.40
2018-10-12T15:40:02.838Z,23.30
2018-10-12T15:42:31.347Z,23.20
2018-10-12T15:44:59.837Z,23.30
2018-10-12T15:47:28.262Z,23.40
2018-10-12T15:49:56.756Z,23.20
2018-10-12T15:52:25.238Z,23.30
2018-10-12T15:54:53.760Z,23.20
2018-10-12T15:57:27.202Z,23.10
2018-10-12T15:59:55.712Z,23.10
2018-10-12T16:02:24.405Z,23.00
2018-10-12T16:04:53.054Z,23.00
2018-10-12T16:07:21.575Z,23.00
2018-10-12T16:09:51.197Z,23.00
2018-10-12T16:12:20.490Z,23.00
2018-10-12T16:14:49.023Z,22.90
2018-10-12T16:17:17.742Z,22.90
2018-10-12T16:19:46.308Z,22.90
2018-10-12T16:22:14.750Z,22.90
2018-10-12T16:24:55.578Z,22.80
2018-10-12T16:27:24.043Z,22.70
2018-10-12T16:29:52.509Z,22.70
2018-10-12T16:32:21.021Z,22.70
2018-10-12T16:34:49.566Z,22.70
2018-10-12T16:37:18.072Z,22.50
2018-10-12T16:39:46.570Z,22.60
2018-10-12T16:42:15.246Z,22.60
2018-10-12T16:44:43.700Z,22.60
2018-10-12T16:47:12.215Z,22.60
2018-10-12T16:49:40.686Z,22.50
2018-10-12T16:52:09.145Z,22.50
2018-10-12T16:54:37.641Z,22.40
2018-10-12T16:57:06.269Z,22.50
2018-10-12T16:59:34.715Z,22.60
2018-10-12T17:02:03.226Z,22.60
2018-10-12T17:04:31.722Z,22.50
2018-10-12T17:07:00.200Z,22.50
2018-10-12T17:09:28.682Z,22.60
2018-10-12T17:11:57.143Z,22.50
2018-10-12T17:14:25.674Z,22.40
2018-10-12T17:16:54.213Z,22.40
2018-10-12T17:19:22.739Z,22.40
2018-10-12T17:21:51.211Z,22.20
2018-10-12T17:24:19.693Z,22.20
2018-10-12T17:26:48.148Z,22.10
2018-10-12T17:29:16.584Z,22.20
2018-10-12T17:31:45.022Z,22.30
2018-10-12T17:34:13.477Z,22.20
2018-10-12T17:36:41.977Z,22.20
2018-10-12T17:39:11.777Z,22.30
2018-10-12T17:41:40.261Z,22.30
2018-10-12T17:44:08.778Z,22.20
2018-10-12T17:46:37.238Z,22.10
2018-10-12T17:49:05.754Z,22.10
2018-10-12T17:51:34.268Z,21.90
2018-10-12T17:54:02.814Z,21.90
2018-10-12T17:56:31.313Z,21.90
2018-10-12T17:58:59.803Z,22.00
2018-10-12T18:01:28.289Z,22.00
2018-10-12T18:03:56.757Z,22.00
2018-10-12T18:06:25.204Z,21.90
2018-10-12T18:08:54.057Z,21.90
2018-10-12T18:11:22.685Z,21.90
2018-10-12T18:13:51.202Z,21.90
2018-10-12T18:16:19.675Z,21.80
2018-10-12T18:18:48.132Z,21.80
2018-10-12T18:21:16.612Z,21.70
2018-10-12T18:23:45.169Z,21.70
2018-10-12T18:26:13.664Z,21.80
2018-10-12T18:28:42.146Z,21.80
2018-10-12T18:31:10.661Z,21.70
2018-10-12T18:33:39.145Z,21.70
2018-10-12T18:36:07.711Z,21.70
2018-10-12T18:38:36.292Z,21.70
2018-10-12T18:41:04.766Z,21.60
2018-10-12T18:43:33.267Z,21.70
2018-10-12T18:46:01.725Z,21.70
2018-10-12T18:48:30.216Z,21.60
2018-10-12T18:50:58.873Z,21.50
2018-10-12T18:53:27.367Z,21.50
2018-10-12T18:55:55.866Z,21.50
2018-10-12T18:58:24.407Z,21.40
2018-10-12T19:00:52.914Z,21.40
2018-10-12T19:03:21.475Z,21.40
2018-10-12T19:05:49.962Z,21.30
2018-10-12T19:08:18.450Z,21.20
2018-10-12T19:10:46.908Z,21.10
2018-10-12T19:13:15.385Z,20.90
2018-10-12T19:15:43.849Z,21.00
2018-10-12T19:18:12.309Z,21.10
2018-10-12T19:20:40.829Z,21.20
2018-10-12T19:23:09.377Z,21.10
2018-10-12T19:25:37.832Z,21.10
2018-10-12T19:28:06.383Z,21.10
2018-10-12T19:30:34.959Z,21.20
2018-10-12T19:33:03.477Z,21.10
2018-10-12T19:42:19.556Z,21.10
2018-10-12T19:44:48.043Z,20.80
2018-10-12T19:47:16.494Z,20.80
2018-10-12T19:49:44.952Z,20.80
2018-10-12T19:52:13.426Z,21.00
2018-10-12T19:54:41.935Z,21.00
2018-10-12T19:57:10.455Z,20.90
2018-10-12T19:59:38.892Z,21.00
2018-10-12T20:02:07.389Z,21.00
2018-10-12T20:04:35.925Z,20.90
2018-10-12T20:07:04.444Z,20.80
2018-10-12T20:09:32.904Z,20.90
2018-10-12T20:12:01.372Z,20.90
2018-10-12T20:14:29.897Z,20.90
2018-10-12T20:16:58.385Z,20.80
2018-10-12T20:19:26.870Z,20.80
2018-10-12T20:21:55.349Z,20.80
2018-10-12T20:24:23.826Z,20.80
2018-10-12T20:26:52.311Z,20.80
2018-10-12T20:29:20.742Z,20.90
2018-10-12T20:31:49.189Z,21.00
2018-10-12T20:34:17.628Z,20.90
2018-10-12T20:36:46.098Z,20.80
2018-10-12T20:39:14.751Z,20.80
2018-10-12T20:41:43.185Z,20.80
2018-10-12T20:44:11.725Z,20.80
2018-10-12T20:46:40.224Z,20.90
2018-10-12T20:49:08.909Z,20.80
2018-10-12T20:51:38.292Z,20.80
2018-10-12T20:54:07.080Z,20.80
2018-10-12T20:56:35.552Z,20.80
2018-10-12T20:59:04.013Z,20.70
2018-10-12T21:01:32.558Z,20.70
2018-10-12T21:04:01.034Z,20.70
2018-10-12T21:06:29.698Z,20.70
2018-10-12T21:08:58.181Z,20.60
2018-10-12T21:11:26.640Z,20.70
2018-10-12T21:13:55.140Z,20.70
2018-10-12T21:16:23.649Z,20.50
2018-10-12T21:18:52.142Z,20.50
2018-10-12T21:21:20.609Z,20.50
2018-10-12T21:23:49.143Z,20.50
2018-10-12T21:26:17.622Z,20.30
2018-10-12T21:28:46.089Z,20.40
2018-10-12T21:31:14.560Z,20.40
2018-10-12T21:33:43.514Z,20.30
2018-10-12T21:36:12.212Z,20.30
2018-10-12T21:38:41.663Z,20.40
2018-10-12T21:41:11.427Z,20.30
2018-10-12T21:43:39.887Z,20.20
2018-10-12T21:46:08.284Z,20.30
2018-10-12T21:48:36.760Z,20.30
2018-10-12T21:51:05.270Z,20.40
2018-10-12T21:53:33.767Z,20.40
2018-10-12T21:56:02.255Z,20.20
2018-10-12T21:58:30.671Z,20.20
2018-10-12T22:01:03.069Z,20.20
2018-10-12T22:03:32.696Z,20.30
2018-10-12T22:06:01.140Z,20.30
2018-10-12T22:08:35.029Z,20.30
2018-10-12T22:11:03.984Z,20.20
2018-10-12T22:13:32.462Z,20.20
2018-10-12T22:16:01.175Z,20.10
2018-10-12T22:18:29.611Z,20.20
2018-10-12T22:20:58.142Z,20.30
2018-10-12T22:23:26.615Z,20.30
2018-10-12T22:25:55.170Z,20.00
2018-10-12T22:28:23.522Z,19.90
2018-10-12T22:30:51.969Z,19.90
2018-10-12T22:33:20.422Z,20.00
2018-10-12T22:35:48.876Z,20.20
2018-10-12T22:38:17.373Z,20.00
2018-10-12T22:40:45.912Z,20.00
2018-10-12T22:43:14.367Z,20.10
2018-10-12T22:45:42.853Z,20.10
2018-10-12T22:48:11.346Z,20.00
2018-10-12T22:50:39.826Z,20.10
2018-10-12T22:53:08.290Z,20.10
2018-10-12T22:55:37.178Z,20.20
2018-10-12T22:58:05.701Z,20.20
2018-10-12T23:00:34.557Z,20.00
2018-10-12T23:03:03.072Z,20.10
2018-10-12T23:05:31.810Z,20.10
2018-10-12T23:08:00.300Z,20.00
2018-10-12T23:10:28.810Z,20.00
2018-10-12T23:12:57.302Z,20.00
2018-10-12T23:15:25.850Z,20.00
2018-10-12T23:17:54.386Z,19.90
2018-10-12T23:20:22.930Z,20.00
2018-10-12T23:22:51.475Z,19.80
2018-10-12T23:25:19.938Z,19.80
2018-10-12T23:27:48.442Z,19.70
2018-10-12T23:30:16.907Z,19.70
2018-10-12T23:32:45.463Z,19.70
2018-10-12T23:35:14.891Z,19.70
2018-10-12T23:37:43.396Z,19.80
2018-10-12T23:40:11.896Z,19.80
2018-10-12T23:42:40.357Z,19.70
2018-10-12T23:45:08.867Z,19.60
2018-10-12T23:47:37.420Z,19.50
2018-10-12T23:50:06.383Z,19.50
2018-10-12T23:52:34.846Z,19.50
2018-10-12T23:55:03.372Z,19.60
2018-10-12T23:57:31.858Z,19.60
